West Harrison, IN (47060)

11:48 PM EDT on September 03, 2015 (GMT -0400)
Serenity Ridge | | Change Station
CLOSE
Current Station
Personal Weather Station
Location: Lawrenceburg, IN
Elevation: 906 ft
Nearby Weather Stations

Elev 906 ft 39.24 °N, 84.88 °W | Updated 11 minutes ago

Clear
Clear
69.3 °F
Feels Like 69.3 °F
N
0.0
Wind Variable Wind from South

Today
High -- | Low -- °F
--% Chance of Precip.
Yesterday
High -- | Low -- °F
Precip. -- in
7:09 AM 8:07 PM
Waning Gibbous, 64% visible
Pressure 29.96 in
Visibility 7.0 miles
Clouds Clear
Dew Point 68 °F
Humidity 96%
Rainfall 0.00 in
Snow Depth Not available.
UV 0 out of 12
Pollen 10.50 out of 12
Air Quality Not available.
Flu Activity Not available.
METAR KHAO 040253Z AUTO 00000KT 7SM CLR 22/20 A2998 RMK AO2 SLP146 T02170200 53011
Pressure 29.96 in
Visibility 7.0 miles
Clouds Clear
Dew Point 68 °F
Humidity 96%
Rainfall 0.00 in
Snow Depth Not available.
UV 0 out of 12
Pollen 10.50 out of 12
Air Quality Not available.
Flu Activity Not available.
METAR KHAO 040253Z AUTO 00000KT 7SM CLR 22/20 A2998 RMK AO2 SLP146 T02170200 53011

10-Day Weather Forecast

×

Almanac

Astronomy

Sep. 03, 2015 Rise Set
Actual Time
Civil Twilight
Nautical Twilight
Astronomical Twilight
Moon
Length of Visible Light
Length of Day
Tomorrow will be .
, % of the Moon is Illuminated

Today's Extremes

State Highs State Lows

Community

WunderPhotos

Upload Photos

1,852,118 photos uploaded!

WunderBlogs® & News

Nearby

Air Quality

  Air Quality AQ Index Pollutant
Not available.

Snow Depth

Station Depth Elevation

Earthquake Activity

City Distance Mag. Time & Date
Minimum magnitude displayed is 2.5.

Coastal Water Temperatures

Place Temperature

Stations

Nearby Weather Stations

Station Location Temp. Windchill Dew Point Humidity Wind Precip. Elev Updated Type